sensor_id;sensor_type;location;lat;lon;timestamp;P1;durP1;ratioP1;P2;durP2;ratioP2
6955;SDS011;50345;51.136;16.886;2022-12-07T00:00:40;6.97;;;6.20;;
6955;SDS011;50345;51.136;16.886;2022-12-07T00:03:06;6.80;;;6.10;;
6955;SDS011;50345;51.136;16.886;2022-12-07T00:05:32;7.15;;;6.45;;
6955;SDS011;50345;51.136;16.886;2022-12-07T00:07:58;6.32;;;5.72;;
6955;SDS011;50345;51.136;16.886;2022-12-07T00:10:24;7.75;;;7.07;;
6955;SDS011;50345;51.136;16.886;2022-12-07T00:12:50;6.47;;;5.65;;
6955;SDS011;50345;51.136;16.886;2022-12-07T00:15:16;6.18;;;5.53;;
6955;SDS011;50345;51.136;16.886;2022-12-07T00:17:42;6.57;;;5.82;;
6955;SDS011;50345;51.136;16.886;2022-12-07T00:20:08;6.82;;;5.00;;
6955;SDS011;50345;51.136;16.886;2022-12-07T00:22:35;7.07;;;5.50;;
6955;SDS011;50345;51.136;16.886;2022-12-07T00:25:01;7.72;;;5.47;;
6955;SDS011;50345;51.136;16.886;2022-12-07T00:27:27;5.65;;;5.03;;
6955;SDS011;50345;51.136;16.886;2022-12-07T00:29:53;5.80;;;5.13;;
6955;SDS011;50345;51.136;16.886;2022-12-07T00:32:19;6.60;;;5.85;;
6955;SDS011;50345;51.136;16.886;2022-12-07T00:34:45;7.43;;;5.43;;
6955;SDS011;50345;51.136;16.886;2022-12-07T00:37:11;5.45;;;4.47;;
6955;SDS011;50345;51.136;16.886;2022-12-07T00:39:37;4.82;;;4.43;;
6955;SDS011;50345;51.136;16.886;2022-12-07T00:42:03;5.32;;;4.82;;
6955;SDS011;50345;51.136;16.886;2022-12-07T00:44:30;4.93;;;3.88;;
6955;SDS011;50345;51.136;16.886;2022-12-07T00:46:55;3.53;;;3.22;;
6955;SDS011;50345;51.136;16.886;2022-12-07T00:49:22;3.78;;;3.10;;
6955;SDS011;50345;51.136;16.886;2022-12-07T00:51:48;3.00;;;2.80;;
6955;SDS011;50345;51.136;16.886;2022-12-07T00:54:14;3.95;;;3.00;;
6955;SDS011;50345;51.136;16.886;2022-12-07T00:56:40;5.00;;;3.85;;
6955;SDS011;50345;51.136;16.886;2022-12-07T00:59:06;3.88;;;2.90;;
6955;SDS011;50345;51.136;16.886;2022-12-07T01:01:34;2.22;;;2.03;;
6955;SDS011;50345;51.136;16.886;2022-12-07T01:04:00;2.78;;;1.92;;
6955;SDS011;50345;51.136;16.886;2022-12-07T01:06:27;3.38;;;2.40;;
6955;SDS011;50345;51.136;16.886;2022-12-07T01:08:53;2.00;;;1.80;;
6955;SDS011;50345;51.136;16.886;2022-12-07T01:11:20;2.58;;;2.38;;
6955;SDS011;50345;51.136;16.886;2022-12-07T01:13:46;3.42;;;2.40;;
6955;SDS011;50345;51.136;16.886;2022-12-07T01:16:13;2.58;;;2.38;;
6955;SDS011;50345;51.136;16.886;2022-12-07T01:18:39;1.95;;;1.70;;
6955;SDS011;50345;51.136;16.886;2022-12-07T01:21:10;3.10;;;2.85;;
6955;SDS011;50345;51.136;16.886;2022-12-07T01:23:37;2.05;;;1.85;;
6955;SDS011;50345;51.136;16.886;2022-12-07T01:26:04;2.05;;;1.90;;
6955;SDS011;50345;51.136;16.886;2022-12-07T01:28:31;2.17;;;2.00;;
6955;SDS011;50345;51.136;16.886;2022-12-07T01:31:02;1.85;;;1.75;;
6955;SDS011;50345;51.136;16.886;2022-12-07T01:33:29;3.22;;;1.80;;
6955;SDS011;50345;51.136;16.886;2022-12-07T01:36:00;2.88;;;2.03;;
6955;SDS011;50345;51.136;16.886;2022-12-07T01:38:26;1.92;;;1.83;;
6955;SDS011;50345;51.136;16.886;2022-12-07T01:40:55;2.30;;;2.10;;
6955;SDS011;50345;51.136;16.886;2022-12-07T01:43:22;2.70;;;2.17;;
6955;SDS011;50345;51.136;16.886;2022-12-07T01:45:49;2.08;;;1.98;;
6955;SDS011;50345;51.136;16.886;2022-12-07T01:48:16;2.33;;;2.10;;
6955;SDS011;50345;51.136;16.886;2022-12-07T01:50:43;2.63;;;1.73;;
6955;SDS011;50345;51.136;16.886;2022-12-07T01:53:10;2.17;;;1.98;;
6955;SDS011;50345;51.136;16.886;2022-12-07T01:55:38;2.65;;;1.80;;
6955;SDS011;50345;51.136;16.886;2022-12-07T01:58:04;1.70;;;1.60;;
6955;SDS011;50345;51.136;16.886;2022-12-07T02:00:30;2.00;;;1.90;;
6955;SDS011;50345;51.136;16.886;2022-12-07T02:02:58;2.78;;;2.50;;
6955;SDS011;50345;51.136;16.886;2022-12-07T02:05:25;2.53;;;2.33;;
6955;SDS011;50345;51.136;16.886;2022-12-07T02:07:53;1.42;;;1.25;;
6955;SDS011;50345;51.136;16.886;2022-12-07T02:10:21;2.40;;;1.90;;
6955;SDS011;50345;51.136;16.886;2022-12-07T02:12:49;2.13;;;1.60;;
6955;SDS011;50345;51.136;16.886;2022-12-07T02:15:16;1.70;;;1.60;;
6955;SDS011;50345;51.136;16.886;2022-12-07T02:17:49;2.58;;;1.75;;
6955;SDS011;50345;51.136;16.886;2022-12-07T02:31:12;2.90;;;2.17;;
6955;SDS011;50345;51.136;16.886;2022-12-07T02:33:58;1.42;;;1.33;;
6955;SDS011;50345;51.136;16.886;2022-12-07T02:36:28;1.90;;;1.80;;
6955;SDS011;50345;51.136;16.886;2022-12-07T02:41:24;1.70;;;1.60;;
6955;SDS011;50345;51.136;16.886;2022-12-07T02:43:53;1.70;;;1.60;;
6955;SDS011;50345;51.136;16.886;2022-12-07T02:46:21;2.22;;;1.80;;
6955;SDS011;50345;51.136;16.886;2022-12-07T02:48:47;1.60;;;1.50;;
6955;SDS011;50345;51.136;16.886;2022-12-07T02:51:17;1.38;;;1.20;;
6955;SDS011;50345;51.136;16.886;2022-12-07T02:53:43;2.60;;;1.85;;
6955;SDS011;50345;51.136;16.886;2022-12-07T02:56:22;2.20;;;1.80;;
6955;SDS011;50345;51.136;16.886;2022-12-07T02:59:12;1.67;;;1.58;;
6955;SDS011;50345;51.136;16.886;2022-12-07T03:09:44;2.20;;;1.90;;
6955;SDS011;50345;51.136;16.886;2022-12-07T03:12:19;1.48;;;1.38;;
6955;SDS011;50345;51.136;16.886;2022-12-07T03:14:52;1.70;;;1.60;;
6955;SDS011;50345;51.136;16.886;2022-12-07T03:17:23;1.80;;;1.70;;
6955;SDS011;50345;51.136;16.886;2022-12-07T03:19:51;2.28;;;2.17;;
6955;SDS011;50345;51.136;16.886;2022-12-07T03:22:18;1.70;;;1.60;;
6955;SDS011;50345;51.136;16.886;2022-12-07T03:24:46;2.30;;;2.20;;
6955;SDS011;50345;51.136;16.886;2022-12-07T03:27:18;2.75;;;1.73;;
6955;SDS011;50345;51.136;16.886;2022-12-07T03:29:47;2.00;;;1.80;;
6955;SDS011;50345;51.136;16.886;2022-12-07T03:32:15;1.85;;;1.75;;
6955;SDS011;50345;51.136;16.886;2022-12-07T03:34:47;1.90;;;1.80;;
6955;SDS011;50345;51.136;16.886;2022-12-07T03:37:18;1.70;;;1.60;;
6955;SDS011;50345;51.136;16.886;2022-12-07T03:39:54;1.65;;;1.55;;
6955;SDS011;50345;51.136;16.886;2022-12-07T03:42:23;1.90;;;1.80;;
6955;SDS011;50345;51.136;16.886;2022-12-07T03:44:49;2.20;;;1.67;;
6955;SDS011;50345;51.136;16.886;2022-12-07T03:47:19;3.38;;;1.65;;
6955;SDS011;50345;51.136;16.886;2022-12-07T03:49:51;2.35;;;2.10;;
6955;SDS011;50345;51.136;16.886;2022-12-07T03:52:27;2.42;;;1.70;;
6955;SDS011;50345;51.136;16.886;2022-12-07T03:54:58;1.95;;;1.85;;
6955;SDS011;50345;51.136;16.886;2022-12-07T03:57:26;2.13;;;1.98;;
6955;SDS011;50345;51.136;16.886;2022-12-07T03:59:54;2.15;;;1.85;;
6955;SDS011;50345;51.136;16.886;2022-12-07T04:02:21;2.15;;;1.98;;
6955;SDS011;50345;51.136;16.886;2022-12-07T04:04:47;2.33;;;2.22;;
6955;SDS011;50345;51.136;16.886;2022-12-07T04:07:13;3.88;;;1.98;;
6955;SDS011;50345;51.136;16.886;2022-12-07T04:09:39;1.95;;;1.80;;
6955;SDS011;50345;51.136;16.886;2022-12-07T04:12:06;2.28;;;1.67;;
6955;SDS011;50345;51.136;16.886;2022-12-07T04:14:32;2.33;;;2.13;;
6955;SDS011;50345;51.136;16.886;2022-12-07T04:16:58;2.30;;;1.45;;
6955;SDS011;50345;51.136;16.886;2022-12-07T04:19:25;1.63;;;1.52;;
6955;SDS011;50345;51.136;16.886;2022-12-07T04:21:52;2.03;;;1.80;;
6955;SDS011;50345;51.136;16.886;2022-12-07T04:24:18;3.80;;;1.35;;
6955;SDS011;50345;51.136;16.886;2022-12-07T04:26:44;1.00;;;1.00;;
6955;SDS011;50345;51.136;16.886;2022-12-07T04:29:10;1.35;;;1.25;;
6955;SDS011;50345;51.136;16.886;2022-12-07T04:31:36;3.83;;;1.70;;
6955;SDS011;50345;51.136;16.886;2022-12-07T04:34:02;2.65;;;1.30;;
6955;SDS011;50345;51.136;16.886;2022-12-07T04:36:29;2.20;;;1.70;;
6955;SDS011;50345;51.136;16.886;2022-12-07T04:38:55;1.95;;;1.85;;
6955;SDS011;50345;51.136;16.886;2022-12-07T04:41:22;1.50;;;1.40;;
6955;SDS011;50345;51.136;16.886;2022-12-07T04:43:52;1.80;;;1.67;;
6955;SDS011;50345;51.136;16.886;2022-12-07T04:46:19;1.90;;;1.70;;
6955;SDS011;50345;51.136;16.886;2022-12-07T04:48:45;1.95;;;1.63;;
6955;SDS011;50345;51.136;16.886;2022-12-07T04:51:11;1.20;;;1.10;;
6955;SDS011;50345;51.136;16.886;2022-12-07T04:53:37;2.05;;;1.85;;
6955;SDS011;50345;51.136;16.886;2022-12-07T04:56:03;2.20;;;1.80;;
6955;SDS011;50345;51.136;16.886;2022-12-07T04:58:29;2.03;;;1.70;;
6955;SDS011;50345;51.136;16.886;2022-12-07T05:00:55;2.85;;;2.65;;
6955;SDS011;50345;51.136;16.886;2022-12-07T05:03:21;1.88;;;1.77;;
6955;SDS011;50345;51.136;16.886;2022-12-07T05:05:47;3.92;;;3.50;;
6955;SDS011;50345;51.136;16.886;2022-12-07T05:08:13;2.50;;;2.30;;
6955;SDS011;50345;51.136;16.886;2022-12-07T05:10:39;2.60;;;2.40;;
6955;SDS011;50345;51.136;16.886;2022-12-07T05:13:05;2.50;;;2.30;;
6955;SDS011;50345;51.136;16.886;2022-12-07T05:15:31;3.58;;;3.35;;
6955;SDS011;50345;51.136;16.886;2022-12-07T05:17:57;3.78;;;3.45;;
6955;SDS011;50345;51.136;16.886;2022-12-07T05:20:23;3.92;;;3.13;;
6955;SDS011;50345;51.136;16.886;2022-12-07T05:22:49;3.72;;;3.42;;
6955;SDS011;50345;51.136;16.886;2022-12-07T05:25:15;5.47;;;4.78;;
6955;SDS011;50345;51.136;16.886;2022-12-07T05:27:41;4.90;;;4.50;;
6955;SDS011;50345;51.136;16.886;2022-12-07T05:30:08;6.13;;;4.90;;
6955;SDS011;50345;51.136;16.886;2022-12-07T05:32:34;5.03;;;4.35;;
6955;SDS011;50345;51.136;16.886;2022-12-07T05:35:00;6.20;;;5.60;;
6955;SDS011;50345;51.136;16.886;2022-12-07T05:37:26;5.85;;;5.20;;
6955;SDS011;50345;51.136;16.886;2022-12-07T05:39:52;6.57;;;5.50;;
6955;SDS011;50345;51.136;16.886;2022-12-07T05:42:18;6.03;;;5.47;;
6955;SDS011;50345;51.136;16.886;2022-12-07T05:44:44;6.97;;;5.47;;
6955;SDS011;50345;51.136;16.886;2022-12-07T05:47:11;7.05;;;6.35;;
6955;SDS011;50345;51.136;16.886;2022-12-07T05:49:37;7.38;;;6.47;;
6955;SDS011;50345;51.136;16.886;2022-12-07T05:52:04;8.00;;;6.85;;
6955;SDS011;50345;51.136;16.886;2022-12-07T05:54:30;9.45;;;7.20;;
6955;SDS011;50345;51.136;16.886;2022-12-07T05:56:56;12.50;;;7.63;;
6955;SDS011;50345;51.136;16.886;2022-12-07T05:59:23;9.10;;;8.07;;
6955;SDS011;50345;51.136;16.886;2022-12-07T06:04:15;10.95;;;8.88;;
6955;SDS011;50345;51.136;16.886;2022-12-07T06:06:41;9.35;;;7.35;;
6955;SDS011;50345;51.136;16.886;2022-12-07T06:09:07;9.45;;;7.38;;
6955;SDS011;50345;51.136;16.886;2022-12-07T06:11:33;11.48;;;7.53;;
6955;SDS011;50345;51.136;16.886;2022-12-07T06:14:18;9.32;;;7.68;;
6955;SDS011;50345;51.136;16.886;2022-12-07T06:16:44;11.45;;;8.57;;
6955;SDS011;50345;51.136;16.886;2022-12-07T06:19:10;11.80;;;8.90;;
6955;SDS011;50345;51.136;16.886;2022-12-07T06:21:36;11.00;;;8.10;;
6955;SDS011;50345;51.136;16.886;2022-12-07T06:24:02;10.27;;;8.25;;
6955;SDS011;50345;51.136;16.886;2022-12-07T06:26:29;10.55;;;8.38;;
6955;SDS011;50345;51.136;16.886;2022-12-07T06:28:55;13.60;;;9.98;;
6955;SDS011;50345;51.136;16.886;2022-12-07T06:31:21;11.02;;;8.38;;
6955;SDS011;50345;51.136;16.886;2022-12-07T06:33:47;9.48;;;6.95;;
6955;SDS011;50345;51.136;16.886;2022-12-07T06:36:13;11.05;;;8.43;;
6955;SDS011;50345;51.136;16.886;2022-12-07T06:38:39;10.65;;;7.90;;
6955;SDS011;50345;51.136;16.886;2022-12-07T06:41:05;11.57;;;7.57;;
6955;SDS011;50345;51.136;16.886;2022-12-07T06:43:32;13.38;;;8.63;;
6955;SDS011;50345;51.136;16.886;2022-12-07T06:45:58;10.85;;;8.88;;
6955;SDS011;50345;51.136;16.886;2022-12-07T06:48:24;9.38;;;7.88;;
6955;SDS011;50345;51.136;16.886;2022-12-07T06:50:50;14.07;;;10.35;;
6955;SDS011;50345;51.136;16.886;2022-12-07T06:53:16;10.20;;;9.07;;
6955;SDS011;50345;51.136;16.886;2022-12-07T06:55:42;9.55;;;8.15;;
6955;SDS011;50345;51.136;16.886;2022-12-07T06:58:08;13.73;;;9.43;;
6955;SDS011;50345;51.136;16.886;2022-12-07T07:00:34;12.35;;;8.63;;
6955;SDS011;50345;51.136;16.886;2022-12-07T07:03:00;9.55;;;8.15;;
6955;SDS011;50345;51.136;16.886;2022-12-07T07:05:27;11.57;;;8.05;;
6955;SDS011;50345;51.136;16.886;2022-12-07T07:07:53;9.80;;;8.70;;
6955;SDS011;50345;51.136;16.886;2022-12-07T07:10:19;12.98;;;9.65;;
6955;SDS011;50345;51.136;16.886;2022-12-07T07:12:45;8.25;;;7.45;;
6955;SDS011;50345;51.136;16.886;2022-12-07T07:15:11;9.18;;;7.43;;
6955;SDS011;50345;51.136;16.886;2022-12-07T07:17:37;11.40;;;9.15;;
6955;SDS011;50345;51.136;16.886;2022-12-07T07:20:03;12.25;;;8.70;;
6955;SDS011;50345;51.136;16.886;2022-12-07T07:22:29;11.00;;;7.60;;
6955;SDS011;50345;51.136;16.886;2022-12-07T07:24:55;11.23;;;7.50;;
6955;SDS011;50345;51.136;16.886;2022-12-07T07:27:21;9.23;;;7.45;;
6955;SDS011;50345;51.136;16.886;2022-12-07T07:29:47;11.27;;;9.10;;
6955;SDS011;50345;51.136;16.886;2022-12-07T07:32:13;9.45;;;7.53;;
6955;SDS011;50345;51.136;16.886;2022-12-07T07:34:39;9.05;;;7.70;;
6955;SDS011;50345;51.136;16.886;2022-12-07T07:37:05;9.38;;;7.13;;
6955;SDS011;50345;51.136;16.886;2022-12-07T07:39:31;9.75;;;8.20;;
6955;SDS011;50345;51.136;16.886;2022-12-07T07:41:57;10.30;;;8.20;;
6955;SDS011;50345;51.136;16.886;2022-12-07T07:44:23;9.25;;;8.02;;
6955;SDS011;50345;51.136;16.886;2022-12-07T07:46:49;9.00;;;8.10;;
6955;SDS011;50345;51.136;16.886;2022-12-07T07:49:15;8.48;;;7.60;;
6955;SDS011;50345;51.136;16.886;2022-12-07T07:51:41;10.63;;;8.27;;
6955;SDS011;50345;51.136;16.886;2022-12-07T07:54:07;12.95;;;8.65;;
6955;SDS011;50345;51.136;16.886;2022-12-07T07:56:33;8.70;;;7.80;;
6955;SDS011;50345;51.136;16.886;2022-12-07T07:58:59;9.68;;;8.50;;
6955;SDS011;50345;51.136;16.886;2022-12-07T08:01:25;10.23;;;8.05;;
6955;SDS011;50345;51.136;16.886;2022-12-07T08:03:51;11.80;;;9.43;;
6955;SDS011;50345;51.136;16.886;2022-12-07T08:06:17;10.18;;;9.10;;
6955;SDS011;50345;51.136;16.886;2022-12-07T08:08:43;10.93;;;9.15;;
6955;SDS011;50345;51.136;16.886;2022-12-07T08:11:09;8.50;;;7.60;;
6955;SDS011;50345;51.136;16.886;2022-12-07T08:13:36;11.10;;;8.88;;
6955;SDS011;50345;51.136;16.886;2022-12-07T08:16:05;12.18;;;9.55;;
6955;SDS011;50345;51.136;16.886;2022-12-07T08:18:34;11.25;;;8.85;;
6955;SDS011;50345;51.136;16.886;2022-12-07T08:21:01;11.15;;;9.95;;
6955;SDS011;50345;51.136;16.886;2022-12-07T08:23:28;22.33;;;11.90;;
6955;SDS011;50345;51.136;16.886;2022-12-07T08:25:54;29.05;;;14.82;;
6955;SDS011;50345;51.136;16.886;2022-12-07T08:28:20;19.63;;;12.45;;
6955;SDS011;50345;51.136;16.886;2022-12-07T08:30:46;30.85;;;16.20;;
6955;SDS011;50345;51.136;16.886;2022-12-07T08:33:12;35.83;;;16.35;;
6955;SDS011;50345;51.136;16.886;2022-12-07T08:35:38;28.60;;;13.73;;
6955;SDS011;50345;51.136;16.886;2022-12-07T08:38:04;35.63;;;14.60;;
6955;SDS011;50345;51.136;16.886;2022-12-07T08:40:30;32.03;;;14.63;;
6955;SDS011;50345;51.136;16.886;2022-12-07T08:42:56;23.92;;;13.35;;
6955;SDS011;50345;51.136;16.886;2022-12-07T08:45:22;19.42;;;13.27;;
6955;SDS011;50345;51.136;16.886;2022-12-07T08:50:14;31.80;;;20.98;;
6955;SDS011;50345;51.136;16.886;2022-12-07T08:52:40;113.03;;;67.07;;
6955;SDS011;50345;51.136;16.886;2022-12-07T08:55:08;123.93;;;83.93;;
6955;SDS011;50345;51.136;16.886;2022-12-07T08:57:34;23.50;;;14.35;;
6955;SDS011;50345;51.136;16.886;2022-12-07T09:00:01;25.00;;;18.95;;
6955;SDS011;50345;51.136;16.886;2022-12-07T09:02:27;18.02;;;14.10;;
6955;SDS011;50345;51.136;16.886;2022-12-07T09:04:53;13.57;;;11.60;;
6955;SDS011;50345;51.136;16.886;2022-12-07T09:07:19;30.02;;;23.85;;
6955;SDS011;50345;51.136;16.886;2022-12-07T09:09:45;14.05;;;10.80;;
6955;SDS011;50345;51.136;16.886;2022-12-07T09:12:12;11.98;;;10.77;;
6955;SDS011;50345;51.136;16.886;2022-12-07T09:14:38;13.75;;;10.75;;
6955;SDS011;50345;51.136;16.886;2022-12-07T09:17:11;13.85;;;11.43;;
6955;SDS011;50345;51.136;16.886;2022-12-07T09:19:38;19.15;;;14.35;;
6955;SDS011;50345;51.136;16.886;2022-12-07T09:22:04;19.33;;;10.15;;
6955;SDS011;50345;51.136;16.886;2022-12-07T09:24:31;11.75;;;8.90;;
6955;SDS011;50345;51.136;16.886;2022-12-07T09:26:57;13.07;;;8.32;;
6955;SDS011;50345;51.136;16.886;2022-12-07T09:29:23;12.55;;;9.07;;
6955;SDS011;50345;51.136;16.886;2022-12-07T09:31:50;6.93;;;6.28;;
6955;SDS011;50345;51.136;16.886;2022-12-07T09:34:16;10.38;;;8.65;;
6955;SDS011;50345;51.136;16.886;2022-12-07T09:36:42;11.65;;;10.07;;
6955;SDS011;50345;51.136;16.886;2022-12-07T09:39:08;11.38;;;7.65;;
6955;SDS011;50345;51.136;16.886;2022-12-07T09:41:37;10.23;;;7.40;;
6955;SDS011;50345;51.136;16.886;2022-12-07T09:44:07;7.82;;;5.90;;
6955;SDS011;50345;51.136;16.886;2022-12-07T09:46:39;7.00;;;5.20;;
6955;SDS011;50345;51.136;16.886;2022-12-07T09:49:05;9.02;;;7.00;;
6955;SDS011;50345;51.136;16.886;2022-12-07T09:51:35;8.60;;;6.22;;
6955;SDS011;50345;51.136;16.886;2022-12-07T09:54:01;7.38;;;5.80;;
6955;SDS011;50345;51.136;16.886;2022-12-07T09:56:30;7.53;;;5.50;;
6955;SDS011;50345;51.136;16.886;2022-12-07T09:58:59;6.20;;;4.38;;
6955;SDS011;50345;51.136;16.886;2022-12-07T10:01:29;6.43;;;5.03;;
6955;SDS011;50345;51.136;16.886;2022-12-07T10:03:59;7.78;;;6.35;;
6955;SDS011;50345;51.136;16.886;2022-12-07T10:06:26;5.05;;;4.55;;
6955;SDS011;50345;51.136;16.886;2022-12-07T10:08:52;5.55;;;5.05;;
6955;SDS011;50345;51.136;16.886;2022-12-07T10:11:18;9.10;;;8.20;;
6955;SDS011;50345;51.136;16.886;2022-12-07T10:13:48;5.47;;;4.97;;
6955;SDS011;50345;51.136;16.886;2022-12-07T10:18:49;7.05;;;5.65;;
6955;SDS011;50345;51.136;16.886;2022-12-07T10:21:20;7.22;;;6.53;;
6955;SDS011;50345;51.136;16.886;2022-12-07T10:24:02;6.40;;;5.72;;
6955;SDS011;50345;51.136;16.886;2022-12-07T10:26:30;8.77;;;5.18;;
6955;SDS011;50345;51.136;16.886;2022-12-07T10:29:01;8.80;;;5.70;;
6955;SDS011;50345;51.136;16.886;2022-12-07T10:31:27;9.95;;;5.47;;
6955;SDS011;50345;51.136;16.886;2022-12-07T10:33:58;16.77;;;9.10;;
6955;SDS011;50345;51.136;16.886;2022-12-07T10:36:33;12.30;;;6.15;;
6955;SDS011;50345;51.136;16.886;2022-12-07T10:39:01;16.15;;;9.80;;
6955;SDS011;50345;51.136;16.886;2022-12-07T10:41:28;65.70;;;28.85;;
6955;SDS011;50345;51.136;16.886;2022-12-07T10:43:55;9.38;;;6.95;;
6955;SDS011;50345;51.136;16.886;2022-12-07T10:51:42;21.70;;;15.77;;
6955;SDS011;50345;51.136;16.886;2022-12-07T10:54:13;16.08;;;9.30;;
6955;SDS011;50345;51.136;16.886;2022-12-07T11:01:48;9.25;;;4.88;;
6955;SDS011;50345;51.136;16.886;2022-12-07T11:06:54;7.82;;;4.47;;
6955;SDS011;50345;51.136;16.886;2022-12-07T11:09:34;11.65;;;7.57;;
6955;SDS011;50345;51.136;16.886;2022-12-07T11:12:07;30.33;;;20.10;;
6955;SDS011;50345;51.136;16.886;2022-12-07T11:14:44;18.77;;;6.15;;
6955;SDS011;50345;51.136;16.886;2022-12-07T11:17:19;12.20;;;6.15;;
6955;SDS011;50345;51.136;16.886;2022-12-07T11:20:01;10.20;;;5.95;;
6955;SDS011;50345;51.136;16.886;2022-12-07T11:22:33;7.78;;;4.97;;
6955;SDS011;50345;51.136;16.886;2022-12-07T11:25:13;11.20;;;5.72;;
6955;SDS011;50345;51.136;16.886;2022-12-07T11:30:34;26.45;;;6.03;;
6955;SDS011;50345;51.136;16.886;2022-12-07T11:33:15;9.50;;;5.40;;
6955;SDS011;50345;51.136;16.886;2022-12-07T11:38:14;10.90;;;5.78;;
6955;SDS011;50345;51.136;16.886;2022-12-07T11:40:43;6.00;;;5.18;;
6955;SDS011;50345;51.136;16.886;2022-12-07T11:43:17;9.45;;;6.07;;
6955;SDS011;50345;51.136;16.886;2022-12-07T11:45:44;4.43;;;3.90;;
6955;SDS011;50345;51.136;16.886;2022-12-07T11:48:14;10.90;;;5.53;;
6955;SDS011;50345;51.136;16.886;2022-12-07T11:50:43;4.30;;;3.90;;
6955;SDS011;50345;51.136;16.886;2022-12-07T11:53:20;18.65;;;8.20;;
6955;SDS011;50345;51.136;16.886;2022-12-07T12:04:01;4.60;;;4.03;;
6955;SDS011;50345;51.136;16.886;2022-12-07T12:06:28;5.07;;;4.07;;
6955;SDS011;50345;51.136;16.886;2022-12-07T12:13:57;3.40;;;3.08;;
6955;SDS011;50345;51.136;16.886;2022-12-07T12:18:55;3.50;;;3.20;;
6955;SDS011;50345;51.136;16.886;2022-12-07T12:21:26;9.20;;;5.43;;
6955;SDS011;50345;51.136;16.886;2022-12-07T12:24:00;15.50;;;8.50;;
6955;SDS011;50345;51.136;16.886;2022-12-07T12:26:29;4.50;;;3.40;;
6955;SDS011;50345;51.136;16.886;2022-12-07T12:28:57;20.13;;;12.73;;
6955;SDS011;50345;51.136;16.886;2022-12-07T12:33:54;6.22;;;5.00;;
6955;SDS011;50345;51.136;16.886;2022-12-07T12:36:42;3.88;;;3.55;;
6955;SDS011;50345;51.136;16.886;2022-12-07T12:39:18;8.68;;;5.85;;
6955;SDS011;50345;51.136;16.886;2022-12-07T12:46:50;5.30;;;4.10;;
6955;SDS011;50345;51.136;16.886;2022-12-07T12:51:47;5.25;;;3.83;;
6955;SDS011;50345;51.136;16.886;2022-12-07T12:54:23;5.45;;;4.95;;
6955;SDS011;50345;51.136;16.886;2022-12-07T13:02:21;7.20;;;4.07;;
6955;SDS011;50345;51.136;16.886;2022-12-07T13:07:47;4.15;;;3.75;;
6955;SDS011;50345;51.136;16.886;2022-12-07T13:10:01;5.40;;;4.90;;
6955;SDS011;50345;51.136;16.886;2022-12-07T13:12:27;6.07;;;5.50;;
6955;SDS011;50345;51.136;16.886;2022-12-07T13:14:59;4.55;;;4.00;;
6955;SDS011;50345;51.136;16.886;2022-12-07T13:19:59;4.88;;;4.03;;
6955;SDS011;50345;51.136;16.886;2022-12-07T13:24:59;6.07;;;4.50;;
6955;SDS011;50345;51.136;16.886;2022-12-07T13:27:28;5.88;;;4.30;;
6955;SDS011;50345;51.136;16.886;2022-12-07T13:29:55;5.75;;;4.30;;
6955;SDS011;50345;51.136;16.886;2022-12-07T13:32:28;4.55;;;4.13;;
6955;SDS011;50345;51.136;16.886;2022-12-07T13:34:54;6.60;;;5.88;;
6955;SDS011;50345;51.136;16.886;2022-12-07T13:37:25;6.47;;;5.03;;
6955;SDS011;50345;51.136;16.886;2022-12-07T13:39:56;6.55;;;4.47;;
6955;SDS011;50345;51.136;16.886;2022-12-07T13:42:26;7.15;;;5.32;;
6955;SDS011;50345;51.136;16.886;2022-12-07T13:44:53;7.10;;;5.45;;
6955;SDS011;50345;51.136;16.886;2022-12-07T13:47:35;11.68;;;7.03;;
6955;SDS011;50345;51.136;16.886;2022-12-07T13:50:20;7.25;;;6.10;;
6955;SDS011;50345;51.136;16.886;2022-12-07T13:52:47;8.57;;;6.78;;
6955;SDS011;50345;51.136;16.886;2022-12-07T13:55:15;9.88;;;7.25;;
6955;SDS011;50345;51.136;16.886;2022-12-07T13:57:42;5.32;;;4.13;;
6955;SDS011;50345;51.136;16.886;2022-12-07T14:00:15;5.07;;;4.25;;
6955;SDS011;50345;51.136;16.886;2022-12-07T14:05:34;32.78;;;21.00;;
6955;SDS011;50345;51.136;16.886;2022-12-07T14:08:02;5.80;;;4.95;;
6955;SDS011;50345;51.136;16.886;2022-12-07T14:11:14;6.20;;;5.30;;
6955;SDS011;50345;51.136;16.886;2022-12-07T14:15:53;18.55;;;10.23;;
6955;SDS011;50345;51.136;16.886;2022-12-07T14:18:29;8.68;;;7.15;;
6955;SDS011;50345;51.136;16.886;2022-12-07T14:21:19;8.85;;;5.78;;
6955;SDS011;50345;51.136;16.886;2022-12-07T14:26:33;7.43;;;6.53;;
6955;SDS011;50345;51.136;16.886;2022-12-07T14:31:43;4.82;;;4.32;;
6955;SDS011;50345;51.136;16.886;2022-12-07T14:34:13;4.82;;;4.22;;
6955;SDS011;50345;51.136;16.886;2022-12-07T14:36:39;5.20;;;4.20;;
6955;SDS011;50345;51.136;16.886;2022-12-07T14:39:05;4.93;;;4.50;;
6955;SDS011;50345;51.136;16.886;2022-12-07T14:41:31;6.00;;;5.00;;
6955;SDS011;50345;51.136;16.886;2022-12-07T14:44:15;5.20;;;3.90;;
6955;SDS011;50345;51.136;16.886;2022-12-07T14:46:41;8.40;;;6.97;;
6955;SDS011;50345;51.136;16.886;2022-12-07T14:49:07;4.85;;;4.30;;
6955;SDS011;50345;51.136;16.886;2022-12-07T14:51:33;10.85;;;8.98;;
6955;SDS011;50345;51.136;16.886;2022-12-07T14:54:01;15.38;;;11.95;;
6955;SDS011;50345;51.136;16.886;2022-12-07T14:56:29;8.52;;;6.15;;
6955;SDS011;50345;51.136;16.886;2022-12-07T14:58:55;5.18;;;3.95;;
6955;SDS011;50345;51.136;16.886;2022-12-07T15:01:21;8.73;;;6.40;;
6955;SDS011;50345;51.136;16.886;2022-12-07T15:03:47;7.75;;;4.82;;
6955;SDS011;50345;51.136;16.886;2022-12-07T15:06:14;4.45;;;4.05;;
6955;SDS011;50345;51.136;16.886;2022-12-07T15:08:40;5.95;;;3.95;;
6955;SDS011;50345;51.136;16.886;2022-12-07T15:11:11;6.50;;;5.15;;
6955;SDS011;50345;51.136;16.886;2022-12-07T15:13:37;8.27;;;4.40;;
6955;SDS011;50345;51.136;16.886;2022-12-07T15:16:22;11.32;;;7.03;;
6955;SDS011;50345;51.136;16.886;2022-12-07T15:18:48;10.70;;;6.07;;
6955;SDS011;50345;51.136;16.886;2022-12-07T15:21:14;11.48;;;5.80;;
6955;SDS011;50345;51.136;16.886;2022-12-07T15:23:41;6.97;;;5.35;;
6955;SDS011;50345;51.136;16.886;2022-12-07T15:26:07;7.72;;;6.47;;
6955;SDS011;50345;51.136;16.886;2022-12-07T15:28:33;10.82;;;7.20;;
6955;SDS011;50345;51.136;16.886;2022-12-07T15:30:59;11.55;;;9.32;;
6955;SDS011;50345;51.136;16.886;2022-12-07T15:33:25;24.98;;;14.00;;
6955;SDS011;50345;51.136;16.886;2022-12-07T15:35:51;11.27;;;8.18;;
6955;SDS011;50345;51.136;16.886;2022-12-07T15:38:17;6.53;;;5.75;;
6955;SDS011;50345;51.136;16.886;2022-12-07T15:40:46;10.13;;;6.20;;
6955;SDS011;50345;51.136;16.886;2022-12-07T15:43:12;11.45;;;7.78;;
6955;SDS011;50345;51.136;16.886;2022-12-07T15:45:57;9.95;;;6.70;;
6955;SDS011;50345;51.136;16.886;2022-12-07T15:48:24;10.93;;;7.78;;
6955;SDS011;50345;51.136;16.886;2022-12-07T15:50:50;8.05;;;6.25;;
6955;SDS011;50345;51.136;16.886;2022-12-07T15:53:16;16.25;;;8.52;;
6955;SDS011;50345;51.136;16.886;2022-12-07T15:55:42;13.55;;;9.68;;
6955;SDS011;50345;51.136;16.886;2022-12-07T15:58:08;18.08;;;8.70;;
6955;SDS011;50345;51.136;16.886;2022-12-07T16:00:34;34.05;;;18.77;;
6955;SDS011;50345;51.136;16.886;2022-12-07T16:03:00;16.13;;;9.70;;
6955;SDS011;50345;51.136;16.886;2022-12-07T16:05:26;12.48;;;8.13;;
6955;SDS011;50345;51.136;16.886;2022-12-07T16:07:53;12.60;;;8.55;;
6955;SDS011;50345;51.136;16.886;2022-12-07T16:10:19;14.25;;;9.63;;
6955;SDS011;50345;51.136;16.886;2022-12-07T16:12:45;9.68;;;8.68;;
6955;SDS011;50345;51.136;16.886;2022-12-07T16:15:11;19.58;;;11.07;;
6955;SDS011;50345;51.136;16.886;2022-12-07T16:17:37;19.02;;;11.68;;
6955;SDS011;50345;51.136;16.886;2022-12-07T16:20:03;17.98;;;11.30;;
6955;SDS011;50345;51.136;16.886;2022-12-07T16:22:29;15.57;;;11.15;;
6955;SDS011;50345;51.136;16.886;2022-12-07T16:24:56;11.93;;;8.20;;